createdAt,value
2018-07-03T00:00:00.079Z,1.00
2018-07-03T00:01:00.064Z,1.30
2018-07-03T00:02:00.039Z,1.20
2018-07-03T00:03:00.029Z,0.90
2018-07-03T00:04:00.014Z,1.20
2018-07-03T00:04:59.990Z,1.10
2018-07-03T00:05:59.988Z,1.30
2018-07-03T00:06:59.960Z,1.10
2018-07-03T00:07:59.968Z,1.20
2018-07-03T00:08:59.937Z,1.10
2018-07-03T00:09:59.930Z,1.10
2018-07-03T00:10:59.912Z,1.20
2018-07-03T00:11:59.896Z,1.00
2018-07-03T00:12:59.890Z,1.60
2018-07-03T00:13:59.870Z,1.30
2018-07-03T00:14:59.867Z,1.00
2018-07-03T00:15:59.847Z,1.20
2018-07-03T00:16:59.977Z,1.20
2018-07-03T00:17:59.817Z,1.20
2018-07-03T00:18:59.804Z,1.60
2018-07-03T00:19:59.785Z,1.10
2018-07-03T00:20:59.771Z,1.20
2018-07-03T00:21:59.763Z,1.40
2018-07-03T00:22:59.745Z,1.20
2018-07-03T00:23:59.736Z,1.40
2018-07-03T00:24:59.727Z,1.40
2018-07-03T00:25:59.707Z,1.20
2018-07-03T00:26:59.692Z,1.40
2018-07-03T00:27:59.673Z,1.10
2018-07-03T00:28:59.666Z,1.20
2018-07-03T00:29:59.655Z,1.00
2018-07-03T00:30:59.639Z,1.20
2018-07-03T00:31:59.633Z,1.30
2018-07-03T00:32:59.612Z,1.20
2018-07-03T00:33:59.593Z,1.20
2018-07-03T00:34:59.578Z,1.60
2018-07-03T00:35:59.669Z,1.10
2018-07-03T00:36:59.550Z,1.10
2018-07-03T00:37:59.540Z,1.10
2018-07-03T00:38:59.529Z,1.40
2018-07-03T00:39:59.511Z,1.10
2018-07-03T00:40:59.498Z,1.10
2018-07-03T00:41:59.492Z,1.40
2018-07-03T00:42:59.470Z,1.30
2018-07-03T00:43:59.455Z,1.30
2018-07-03T00:44:59.443Z,1.30
2018-07-03T00:45:59.430Z,1.60
2018-07-03T00:46:59.415Z,1.30
2018-07-03T00:47:59.410Z,1.00
2018-07-03T00:48:59.391Z,1.30
2018-07-03T00:49:59.375Z,1.40
2018-07-03T00:50:59.368Z,1.20
2018-07-03T00:51:59.350Z,1.00
2018-07-03T00:52:59.333Z,1.40
2018-07-03T00:53:59.320Z,1.20
2018-07-03T00:54:59.356Z,1.30
2018-07-03T00:55:59.297Z,1.40
2018-07-03T00:56:59.275Z,1.30
2018-07-03T00:57:59.264Z,1.20
2018-07-03T00:58:59.256Z,1.60
2018-07-03T00:59:59.234Z,1.10
2018-07-03T01:00:59.221Z,1.40
2018-07-03T01:01:59.208Z,1.30
2018-07-03T01:02:59.197Z,1.20
2018-07-03T01:03:59.186Z,1.30
2018-07-03T01:04:59.167Z,1.40
2018-07-03T01:05:59.156Z,1.20
2018-07-03T01:06:59.144Z,1.60
2018-07-03T01:07:59.124Z,1.30
2018-07-03T01:08:59.113Z,1.50
2018-07-03T01:09:59.096Z,1.20
2018-07-03T01:10:59.087Z,1.00
2018-07-03T01:11:59.072Z,1.30
2018-07-03T01:12:59.057Z,1.40
2018-07-03T01:13:59.041Z,1.40
2018-07-03T01:14:59.036Z,1.60
2018-07-03T01:15:59.040Z,1.10
2018-07-03T01:16:59.005Z,1.10
2018-07-03T01:17:58.985Z,1.00
2018-07-03T01:18:59.025Z,1.50
2018-07-03T01:19:58.969Z,1.10
2018-07-03T01:20:58.947Z,1.00
2018-07-03T01:21:58.930Z,1.40
2018-07-03T01:22:58.925Z,1.40
2018-07-03T01:23:58.908Z,1.40
2018-07-03T01:24:58.892Z,1.40
2018-07-03T01:25:58.882Z,1.50
2018-07-03T01:26:58.864Z,1.60
2018-07-03T01:27:58.850Z,1.20
2018-07-03T01:28:58.835Z,1.40
2018-07-03T01:29:58.822Z,1.70
2018-07-03T01:30:58.809Z,1.50
2018-07-03T01:31:58.800Z,1.40
2018-07-03T01:32:58.781Z,1.00
2018-07-03T01:33:58.764Z,1.40
2018-07-03T01:34:58.919Z,1.30
2018-07-03T01:35:58.746Z,1.40
2018-07-03T01:36:58.729Z,1.10
2018-07-03T01:37:58.821Z,1.40
2018-07-03T01:38:58.698Z,1.40
2018-07-03T01:39:58.679Z,1.10
2018-07-03T01:40:58.665Z,1.50
2018-07-03T01:41:58.652Z,1.40
2018-07-03T01:42:58.638Z,1.30
2018-07-03T01:43:58.626Z,1.40
2018-07-03T01:44:58.613Z,1.30
2018-07-03T01:45:58.598Z,1.20
2018-07-03T01:46:58.590Z,1.50
2018-07-03T01:47:58.577Z,1.40
2018-07-03T01:48:58.553Z,1.30
2018-07-03T01:49:58.541Z,1.40
2018-07-03T01:50:58.530Z,1.50
2018-07-03T01:51:58.518Z,1.20
2018-07-03T01:52:58.498Z,1.20
2018-07-03T01:53:58.494Z,1.20
2018-07-03T01:54:58.469Z,1.40
2018-07-03T01:55:58.456Z,1.50
2018-07-03T01:56:58.440Z,1.40
2018-07-03T01:57:58.425Z,1.50
2018-07-03T01:58:58.459Z,1.20
2018-07-03T01:59:58.399Z,1.20
2018-07-03T02:00:58.385Z,1.50
2018-07-03T02:01:58.425Z,1.30
2018-07-03T02:02:58.354Z,1.10
2018-07-03T02:03:58.342Z,1.30
2018-07-03T02:04:58.328Z,1.20
2018-07-03T02:05:58.313Z,1.50
2018-07-03T02:06:58.303Z,1.10
2018-07-03T02:07:58.286Z,1.40
2018-07-03T02:08:58.281Z,1.50
2018-07-03T02:09:58.258Z,1.20
2018-07-03T02:10:58.248Z,1.60
2018-07-03T02:11:58.235Z,1.30
2018-07-03T02:12:58.214Z,1.50
2018-07-03T02:13:58.198Z,1.50
2018-07-03T02:14:58.186Z,1.50
2018-07-03T02:15:58.172Z,1.50
2018-07-03T02:16:58.157Z,1.60
2018-07-03T02:17:58.147Z,1.30
2018-07-03T02:18:58.131Z,1.30
2018-07-03T02:19:58.114Z,1.60
2018-07-03T02:20:58.147Z,1.40
2018-07-03T02:21:58.084Z,1.50
2018-07-03T02:22:58.069Z,1.30
2018-07-03T02:23:58.059Z,1.50
2018-07-03T02:24:58.042Z,1.40
2018-07-03T02:25:58.027Z,1.60
2018-07-03T02:26:58.012Z,1.70
2018-07-03T02:27:58.003Z,1.50
2018-07-03T02:28:57.985Z,1.40
2018-07-03T02:29:57.972Z,1.40
2018-07-03T02:30:57.956Z,1.40
2018-07-03T02:31:57.940Z,1.40
2018-07-03T02:32:57.927Z,1.40
2018-07-03T02:33:57.915Z,1.40
2018-07-03T02:34:57.902Z,1.40
2018-07-03T02:35:57.886Z,1.40
2018-07-03T02:36:57.975Z,1.70
2018-07-03T02:37:57.870Z,1.30
2018-07-03T02:38:57.838Z,1.70
2018-07-03T02:39:57.826Z,1.70
2018-07-03T02:40:57.812Z,1.80
2018-07-03T02:41:57.807Z,2.00
2018-07-03T02:42:57.786Z,1.20
2018-07-03T02:43:57.767Z,1.60
2018-07-03T02:44:57.806Z,1.40
2018-07-03T02:45:57.735Z,1.50
2018-07-03T02:46:57.736Z,1.80
2018-07-03T02:47:57.712Z,1.70
2018-07-03T02:48:57.696Z,1.50
2018-07-03T02:49:57.681Z,1.70
2018-07-03T02:50:57.665Z,1.40
2018-07-03T02:51:57.655Z,1.90
2018-07-03T02:52:57.636Z,1.40
2018-07-03T02:53:57.625Z,1.60
2018-07-03T02:54:57.608Z,1.50
2018-07-03T02:55:57.592Z,1.50
2018-07-03T02:56:57.577Z,1.60
2018-07-03T02:57:57.563Z,1.30
2018-07-03T02:58:57.548Z,1.50
2018-07-03T02:59:57.535Z,1.40
2018-07-03T03:00:57.522Z,1.40
2018-07-03T03:01:57.507Z,1.70
2018-07-03T03:02:57.491Z,1.70
2018-07-03T03:03:57.576Z,1.50
2018-07-03T03:04:57.459Z,1.40
2018-07-03T03:05:57.445Z,1.30
2018-07-03T03:06:57.486Z,1.40
2018-07-03T03:07:57.418Z,1.50
2018-07-03T03:08:57.414Z,1.50
2018-07-03T03:09:57.389Z,1.40
2018-07-03T03:10:57.377Z,1.50
2018-07-03T03:11:57.362Z,1.30
2018-07-03T03:12:57.347Z,1.80
2018-07-03T03:13:57.345Z,1.20
2018-07-03T03:14:57.315Z,1.80
2018-07-03T03:15:57.302Z,1.30
2018-07-03T03:16:57.292Z,1.50
2018-07-03T03:17:57.277Z,1.40
2018-07-03T03:18:57.258Z,1.50
2018-07-03T03:19:57.309Z,1.70
2018-07-03T03:20:57.231Z,1.50
2018-07-03T03:21:57.212Z,1.50
2018-07-03T03:22:57.302Z,1.80
2018-07-03T03:23:57.183Z,2.00
2018-07-03T03:24:57.173Z,1.60
2018-07-03T03:25:57.155Z,1.50
2018-07-03T03:26:57.142Z,1.40
2018-07-03T03:27:57.126Z,1.70
2018-07-03T03:28:57.110Z,1.80
2018-07-03T03:29:57.092Z,2.20
2018-07-03T03:30:57.135Z,1.90
2018-07-03T03:31:57.067Z,1.60
2018-07-03T03:32:57.055Z,1.60
2018-07-03T03:33:57.036Z,1.70
2018-07-03T03:34:57.022Z,1.70
2018-07-03T03:35:57.005Z,1.60
2018-07-03T03:36:56.992Z,1.70
2018-07-03T03:37:56.976Z,1.70
2018-07-03T03:38:56.966Z,1.70
2018-07-03T03:39:56.947Z,1.80
2018-07-03T03:40:56.935Z,2.00
2018-07-03T03:41:56.922Z,1.60
2018-07-03T03:42:56.904Z,1.70
2018-07-03T03:43:56.952Z,1.90
2018-07-03T03:44:56.875Z,1.80
2018-07-03T03:45:56.857Z,1.70
2018-07-03T03:46:56.946Z,1.80
2018-07-03T03:47:56.839Z,1.70
2018-07-03T03:48:56.816Z,1.60
2018-07-03T03:49:56.800Z,1.30
2018-07-03T03:50:56.786Z,1.60
2018-07-03T03:51:56.769Z,1.40
2018-07-03T03:52:56.753Z,1.80
2018-07-03T03:53:56.758Z,1.40
2018-07-03T03:54:56.725Z,1.50
2018-07-03T03:55:56.720Z,1.50
2018-07-03T03:56:56.695Z,1.60
2018-07-03T03:57:56.679Z,1.70
2018-07-03T03:58:56.665Z,1.50
2018-07-03T03:59:56.658Z,1.60
2018-07-03T04:00:56.757Z,1.80
2018-07-03T04:01:56.626Z,1.30
2018-07-03T04:02:56.740Z,1.60
2018-07-03T04:03:56.593Z,1.50
2018-07-03T04:04:56.581Z,1.90
2018-07-03T04:05:56.580Z,1.90
2018-07-03T04:06:56.547Z,1.80
2018-07-03T04:07:56.532Z,1.70
2018-07-03T04:08:56.518Z,1.90
2018-07-03T04:09:56.505Z,1.80
2018-07-03T04:10:56.493Z,1.70
2018-07-03T04:11:56.480Z,2.00
2018-07-03T04:12:56.461Z,2.20
2018-07-03T04:13:56.449Z,2.00
2018-07-03T04:14:56.428Z,2.10
2018-07-03T04:15:56.413Z,1.90
2018-07-03T04:16:56.411Z,2.50
2018-07-03T04:17:56.387Z,2.20
2018-07-03T04:18:56.379Z,2.30
2018-07-03T04:19:56.356Z,2.00
2018-07-03T04:20:56.341Z,1.90
2018-07-03T04:21:56.326Z,2.30
2018-07-03T04:22:56.316Z,2.10
2018-07-03T04:23:56.303Z,2.00
2018-07-03T04:24:56.283Z,1.80
2018-07-03T04:25:56.266Z,1.60
2018-07-03T04:26:56.255Z,1.80
2018-07-03T04:27:56.237Z,1.60
2018-07-03T04:28:56.225Z,1.70
2018-07-03T04:29:56.215Z,1.70
2018-07-03T04:30:56.193Z,1.60
2018-07-03T04:31:56.185Z,1.80
2018-07-03T04:32:56.210Z,1.70
2018-07-03T04:33:56.172Z,1.60
2018-07-03T04:34:56.137Z,1.90
2018-07-03T04:35:56.121Z,2.20
2018-07-03T04:36:56.108Z,2.10
2018-07-03T04:37:56.092Z,1.90
2018-07-03T04:38:56.078Z,1.80
2018-07-03T04:39:56.065Z,1.90
2018-07-03T04:40:56.046Z,1.80
2018-07-03T04:41:56.031Z,1.80
2018-07-03T04:42:56.016Z,1.70
2018-07-03T04:43:56.001Z,1.90
2018-07-03T04:44:55.985Z,2.10
2018-07-03T04:45:55.970Z,1.90
2018-07-03T04:46:56.044Z,2.10
2018-07-03T04:47:55.943Z,1.70
2018-07-03T04:48:55.980Z,2.20
2018-07-03T04:49:55.911Z,2.00
2018-07-03T04:50:55.898Z,2.20
2018-07-03T04:51:55.935Z,1.70
2018-07-03T04:52:55.866Z,1.90
2018-07-03T04:53:55.856Z,2.00
2018-07-03T04:54:55.839Z,1.70
2018-07-03T04:55:55.827Z,2.30
2018-07-03T04:56:55.809Z,2.80
2018-07-03T04:57:55.796Z,2.10
2018-07-03T04:58:55.784Z,2.00
2018-07-03T04:59:55.762Z,2.40
2018-07-03T05:00:55.748Z,2.10
2018-07-03T05:01:55.737Z,1.90
2018-07-03T05:02:55.729Z,2.10
2018-07-03T05:03:55.705Z,2.10
2018-07-03T05:04:55.691Z,2.10
2018-07-03T05:05:55.676Z,2.30
2018-07-03T05:06:55.659Z,2.00
2018-07-03T05:07:55.654Z,2.30
2018-07-03T05:08:55.638Z,2.20
2018-07-03T05:09:55.614Z,2.20
2018-07-03T05:10:55.610Z,1.80
2018-07-03T05:11:55.589Z,2.40
2018-07-03T05:12:55.575Z,2.50
2018-07-03T05:13:55.573Z,1.80
2018-07-03T05:14:55.541Z,2.30
2018-07-03T05:15:55.625Z,2.80
2018-07-03T05:16:55.517Z,2.20
2018-07-03T05:17:55.504Z,2.50
2018-07-03T05:18:55.493Z,2.30
2018-07-03T05:19:55.472Z,2.40
2018-07-03T05:20:55.463Z,2.50
2018-07-03T05:21:55.439Z,2.50
2018-07-03T05:22:55.425Z,2.70
2018-07-03T05:23:55.413Z,2.50
2018-07-03T05:24:55.400Z,2.70
2018-07-03T05:25:55.384Z,2.80
2018-07-03T05:26:55.368Z,2.80
2018-07-03T05:27:55.356Z,3.20
2018-07-03T05:28:55.336Z,3.20
2018-07-03T05:29:55.326Z,3.40
2018-07-03T05:30:55.310Z,3.70
2018-07-03T05:31:55.299Z,3.20
2018-07-03T05:32:55.279Z,3.40
2018-07-03T05:33:55.268Z,3.10
2018-07-03T05:34:55.304Z,3.50
2018-07-03T05:35:55.242Z,3.20
2018-07-03T05:36:55.222Z,3.00
2018-07-03T05:37:55.208Z,2.60
2018-07-03T05:38:55.194Z,2.90
2018-07-03T05:39:55.246Z,2.70
2018-07-03T05:40:55.170Z,3.00
2018-07-03T05:41:55.155Z,2.80
2018-07-03T05:42:55.154Z,3.00
2018-07-03T05:43:55.124Z,2.20
2018-07-03T05:44:55.109Z,2.50
2018-07-03T05:45:55.098Z,2.80
2018-07-03T05:46:55.079Z,2.00
2018-07-03T05:47:55.070Z,2.40
2018-07-03T05:48:55.053Z,2.40
2018-07-03T05:49:55.037Z,2.50
2018-07-03T05:50:55.124Z,2.10
2018-07-03T05:51:55.008Z,2.20
2018-07-03T05:52:54.996Z,1.90
2018-07-03T05:53:54.984Z,2.00
2018-07-03T05:54:54.967Z,1.90
2018-07-03T05:55:54.952Z,1.90
2018-07-03T05:56:54.949Z,2.10
2018-07-03T05:57:54.923Z,1.90
2018-07-03T05:58:54.967Z,2.00
2018-07-03T05:59:54.893Z,2.10
2018-07-03T06:00:54.877Z,2.20
2018-07-03T06:01:54.868Z,2.40
2018-07-03T06:02:54.851Z,2.30
2018-07-03T06:03:54.858Z,1.80
2018-07-03T06:04:54.830Z,2.00
2018-07-03T06:05:54.810Z,1.90
2018-07-03T06:06:54.800Z,2.20
2018-07-03T06:07:54.782Z,2.40
2018-07-03T06:08:54.768Z,1.80
2018-07-03T06:09:54.752Z,2.10
2018-07-03T06:10:54.738Z,2.10
2018-07-03T06:11:54.726Z,2.70
2018-07-03T06:12:54.733Z,2.00
2018-07-03T06:13:54.695Z,2.00
2018-07-03T06:14:54.722Z,2.10
2018-07-03T06:15:54.675Z,2.00
2018-07-03T06:16:54.656Z,2.00
2018-07-03T06:17:54.688Z,1.90
2018-07-03T06:18:54.625Z,2.30
2018-07-03T06:19:54.617Z,2.00
2018-07-03T06:20:54.598Z,2.00
2018-07-03T06:21:54.580Z,2.20
2018-07-03T06:22:54.568Z,2.20
2018-07-03T06:23:54.553Z,1.90
2018-07-03T06:24:54.545Z,2.10
2018-07-03T06:25:54.525Z,2.10
2018-07-03T06:26:54.517Z,2.00
2018-07-03T06:27:54.498Z,2.20
2018-07-03T06:28:54.536Z,2.10
2018-07-03T06:29:54.475Z,1.90
2018-07-03T06:30:54.457Z,2.00
2018-07-03T06:31:54.447Z,1.90
2018-07-03T06:32:54.433Z,2.00
2018-07-03T06:33:54.514Z,2.10
2018-07-03T06:34:54.399Z,2.30
2018-07-03T06:35:54.397Z,2.10
2018-07-03T06:36:54.369Z,1.90
2018-07-03T06:37:54.355Z,2.30
2018-07-03T06:38:54.350Z,2.30
2018-07-03T06:39:54.331Z,1.70
2018-07-03T06:40:54.311Z,1.80
2018-07-03T06:41:54.299Z,1.80
2018-07-03T06:42:54.307Z,1.70
2018-07-03T06:43:54.275Z,1.90
2018-07-03T06:44:54.272Z,1.90
2018-07-03T06:45:54.246Z,2.00
2018-07-03T06:46:54.237Z,2.20
2018-07-03T06:47:54.218Z,1.90
2018-07-03T06:48:54.206Z,1.70
2018-07-03T06:49:54.188Z,2.20
2018-07-03T06:50:54.176Z,1.90
2018-07-03T06:51:54.164Z,1.70
2018-07-03T06:52:54.250Z,2.20
2018-07-03T06:53:54.133Z,2.00
2018-07-03T06:54:54.125Z,2.10
2018-07-03T06:55:54.107Z,2.20
2018-07-03T06:56:54.093Z,2.00
2018-07-03T06:57:54.136Z,2.10
2018-07-03T06:58:54.066Z,1.80
2018-07-03T06:59:54.055Z,1.80
2018-07-03T07:00:54.102Z,1.70
2018-07-03T07:01:54.027Z,2.00
2018-07-03T07:02:54.020Z,1.90
2018-07-03T07:03:54.007Z,1.50
2018-07-03T07:04:53.983Z,2.00
2018-07-03T07:05:53.977Z,2.00
2018-07-03T07:06:53.955Z,1.60
2018-07-03T07:07:53.943Z,2.00
2018-07-03T07:08:54.002Z,1.80
2018-07-03T07:09:53.918Z,1.70
2018-07-03T07:10:53.903Z,2.00
2018-07-03T07:11:53.900Z,1.80
2018-07-03T07:12:53.876Z,1.70
2018-07-03T07:13:53.864Z,1.80
2018-07-03T07:14:53.896Z,1.90
2018-07-03T07:15:53.836Z,2.10
2018-07-03T07:16:53.974Z,1.70
2018-07-03T07:17:53.806Z,2.00
2018-07-03T07:18:53.797Z,1.60
2018-07-03T07:19:53.782Z,1.90
2018-07-03T07:20:53.770Z,1.80
2018-07-03T07:21:53.756Z,2.00
2018-07-03T07:22:53.748Z,1.70
2018-07-03T07:23:53.727Z,1.60
2018-07-03T07:24:53.713Z,1.90
2018-07-03T07:25:53.703Z,1.80
2018-07-03T07:26:53.690Z,3.00
2018-07-03T07:27:53.678Z,2.90
2018-07-03T07:28:53.658Z,2.10
2018-07-03T07:29:53.653Z,1.50
2018-07-03T07:30:53.643Z,1.70
2018-07-03T07:31:53.618Z,2.10
2018-07-03T07:32:53.619Z,2.70
2018-07-03T07:33:53.594Z,2.40
2018-07-03T07:34:53.580Z,2.60
2018-07-03T07:35:53.617Z,1.80
2018-07-03T07:36:53.555Z,1.60
2018-07-03T07:37:53.540Z,1.90
2018-07-03T07:38:53.525Z,1.50
2018-07-03T07:39:53.515Z,1.40
2018-07-03T07:40:53.704Z,1.60
2018-07-03T07:41:53.486Z,1.60
2018-07-03T07:42:53.476Z,1.60
2018-07-03T07:43:53.518Z,1.50
2018-07-03T07:44:53.448Z,1.40
2018-07-03T07:45:53.439Z,1.50
2018-07-03T07:46:53.420Z,1.70
2018-07-03T07:47:53.436Z,1.90
2018-07-03T07:48:53.398Z,1.70
2018-07-03T07:49:53.390Z,1.30
2018-07-03T07:50:53.372Z,1.70
2018-07-03T07:51:53.357Z,1.40
2018-07-03T07:52:53.348Z,1.60
2018-07-03T07:53:53.335Z,1.70
2018-07-03T07:54:53.341Z,1.50
2018-07-03T07:55:53.306Z,1.60
2018-07-03T07:56:53.302Z,2.00
2018-07-03T07:57:53.286Z,1.40
2018-07-03T07:58:53.277Z,1.60
2018-07-03T07:59:53.256Z,2.10
2018-07-03T08:00:53.247Z,1.60
2018-07-03T08:01:53.230Z,1.40
2018-07-03T08:02:53.223Z,1.70
2018-07-03T08:03:53.207Z,1.50
2018-07-03T08:04:53.193Z,1.60
2018-07-03T08:05:53.183Z,1.70
2018-07-03T08:06:53.177Z,1.20
2018-07-03T08:07:53.162Z,1.60
2018-07-03T08:08:53.147Z,1.70
2018-07-03T08:09:53.136Z,1.50
2018-07-03T08:10:53.125Z,1.70
2018-07-03T08:11:53.117Z,1.30
2018-07-03T08:12:53.102Z,1.40
2018-07-03T08:13:53.087Z,1.60
2018-07-03T08:14:53.073Z,1.60
2018-07-03T08:15:53.060Z,1.30
2018-07-03T08:16:53.049Z,1.50
2018-07-03T08:17:53.039Z,1.60
2018-07-03T08:18:53.028Z,1.40
2018-07-03T08:19:53.012Z,1.30
2018-07-03T08:20:53.001Z,1.60
2018-07-03T08:21:52.996Z,1.50
2018-07-03T08:22:52.976Z,1.20
2018-07-03T08:23:52.967Z,1.30
2018-07-03T08:24:52.954Z,1.30
2018-07-03T08:25:52.943Z,1.40
2018-07-03T08:26:52.935Z,1.10
2018-07-03T08:27:52.928Z,1.80
2018-07-03T08:28:52.905Z,1.30
2018-07-03T08:29:52.896Z,1.60
2018-07-03T08:30:52.883Z,1.40
2018-07-03T08:31:52.871Z,1.50
2018-07-03T08:32:52.864Z,1.20
2018-07-03T08:33:52.851Z,1.40
2018-07-03T08:34:52.843Z,1.10
2018-07-03T08:35:52.826Z,1.50
2018-07-03T08:36:52.839Z,1.40
2018-07-03T08:37:52.858Z,1.30
2018-07-03T08:38:52.794Z,1.40
2018-07-03T08:39:52.879Z,1.50
2018-07-03T08:40:52.787Z,1.30
2018-07-03T08:41:52.761Z,1.10
2018-07-03T08:42:52.818Z,1.30
2018-07-03T08:43:52.737Z,1.20
2018-07-03T08:44:52.727Z,1.50
2018-07-03T08:45:52.718Z,1.10
2018-07-03T08:46:52.703Z,1.30
2018-07-03T08:47:52.696Z,1.50
2018-07-03T08:48:52.687Z,1.20
2018-07-03T08:49:52.667Z,1.50
2018-07-03T08:50:52.658Z,1.70
2018-07-03T08:51:52.778Z,1.00
2018-07-03T08:52:52.637Z,1.40
2018-07-03T08:53:52.623Z,1.00
2018-07-03T08:54:52.616Z,1.20
2018-07-03T08:55:52.704Z,1.10
2018-07-03T08:56:52.600Z,1.00
2018-07-03T08:57:52.579Z,1.30
2018-07-03T08:58:52.621Z,1.10
2018-07-03T08:59:52.560Z,1.40
2018-07-03T09:00:52.651Z,1.20
2018-07-03T09:01:52.546Z,1.20
2018-07-03T09:02:52.529Z,1.10
2018-07-03T09:03:52.558Z,1.30
2018-07-03T09:04:52.506Z,1.20
2018-07-03T09:05:52.498Z,1.50
2018-07-03T09:06:52.481Z,1.30
2018-07-03T09:07:52.480Z,1.20
2018-07-03T09:08:52.465Z,1.70
2018-07-03T09:09:52.451Z,1.30
2018-07-03T09:10:52.436Z,1.00
2018-07-03T09:11:52.539Z,1.30
2018-07-03T09:12:52.413Z,1.20
2018-07-03T09:13:52.405Z,1.40
2018-07-03T09:14:52.393Z,1.20
2018-07-03T09:15:52.386Z,1.50
2018-07-03T09:16:52.378Z,1.30
2018-07-03T09:17:52.424Z,1.10
2018-07-03T09:18:52.353Z,1.40
2018-07-03T09:19:52.449Z,1.20
2018-07-03T09:20:52.333Z,1.40
2018-07-03T09:21:52.323Z,1.10
2018-07-03T09:22:52.311Z,0.80
2018-07-03T09:23:52.306Z,1.00
2018-07-03T09:24:52.307Z,1.10
2018-07-03T09:25:52.283Z,1.40
2018-07-03T09:26:52.267Z,0.90
2018-07-03T09:27:52.265Z,1.10
2018-07-03T09:28:52.247Z,1.00
2018-07-03T09:29:52.243Z,1.20
2018-07-03T09:30:52.229Z,1.00
2018-07-03T09:31:52.217Z,1.20
2018-07-03T09:32:52.204Z,1.10
2018-07-03T09:33:52.198Z,0.80
2018-07-03T09:34:52.189Z,0.90
2018-07-03T09:35:52.226Z,1.10
2018-07-03T09:36:52.167Z,1.20
2018-07-03T09:37:52.157Z,1.20
2018-07-03T09:38:52.147Z,1.50
2018-07-03T09:39:52.135Z,1.20
2018-07-03T09:40:52.131Z,1.00
2018-07-03T09:41:52.118Z,1.10
2018-07-03T09:42:52.109Z,1.20
2018-07-03T09:43:52.109Z,1.10
2018-07-03T09:44:52.089Z,1.40
2018-07-03T09:45:52.074Z,1.10
2018-07-03T09:46:52.073Z,1.20
2018-07-03T09:47:52.054Z,1.20
2018-07-03T09:48:52.084Z,0.80
2018-07-03T09:49:52.037Z,1.00
2018-07-03T09:50:52.024Z,1.10
2018-07-03T09:51:52.017Z,1.10
2018-07-03T09:52:52.007Z,0.90
2018-07-03T09:53:51.991Z,1.00
2018-07-03T09:54:52.149Z,1.00
2018-07-03T09:55:51.974Z,1.00
2018-07-03T09:56:51.964Z,0.90
2018-07-03T09:57:52.049Z,0.70
2018-07-03T09:58:51.944Z,1.10
2018-07-03T09:59:51.934Z,1.10
2018-07-03T10:00:51.921Z,0.80
2018-07-03T10:01:51.912Z,1.00
2018-07-03T10:02:51.901Z,1.10
2018-07-03T10:03:51.905Z,1.20
2018-07-03T10:04:51.891Z,0.90
2018-07-03T10:05:51.883Z,1.00
2018-07-03T10:06:51.874Z,0.80
2018-07-03T10:07:51.859Z,0.90
2018-07-03T10:08:51.842Z,1.00
2018-07-03T10:09:51.834Z,0.90
2018-07-03T10:10:51.824Z,1.20
2018-07-03T10:11:51.817Z,0.90
2018-07-03T10:12:51.942Z,1.00
2018-07-03T10:13:51.797Z,1.00
2018-07-03T10:14:51.788Z,1.20
2018-07-03T10:15:51.777Z,0.90
2018-07-03T10:16:51.767Z,0.80
2018-07-03T10:17:51.755Z,1.00
2018-07-03T10:18:51.752Z,1.10
2018-07-03T10:19:51.740Z,1.00
2018-07-03T10:20:51.727Z,1.00
2018-07-03T10:21:51.716Z,1.00
2018-07-03T10:22:51.707Z,1.00
2018-07-03T10:23:51.700Z,1.00
2018-07-03T10:24:51.688Z,1.00
2018-07-03T10:25:51.683Z,0.80
2018-07-03T10:26:51.670Z,1.10
2018-07-03T10:27:51.671Z,1.00
2018-07-03T10:28:51.650Z,0.80
2018-07-03T10:29:51.644Z,1.00
2018-07-03T10:30:51.636Z,1.10
2018-07-03T10:31:51.622Z,0.90
2018-07-03T10:32:51.611Z,1.10
2018-07-03T10:33:51.604Z,0.90
2018-07-03T10:34:51.591Z,0.90
2018-07-03T10:35:51.590Z,1.30
2018-07-03T10:36:51.577Z,1.00
2018-07-03T10:37:51.566Z,0.90
2018-07-03T10:38:51.556Z,1.00
2018-07-03T10:39:51.554Z,1.00
2018-07-03T10:40:51.538Z,1.10
2018-07-03T10:41:51.528Z,1.10
2018-07-03T10:42:51.527Z,1.20
2018-07-03T10:43:51.518Z,1.30
2018-07-03T10:44:51.506Z,1.20
2018-07-03T10:45:51.487Z,0.80
2018-07-03T10:46:51.480Z,1.20
2018-07-03T10:47:51.474Z,1.00
2018-07-03T10:48:51.490Z,1.10
2018-07-03T10:49:51.449Z,1.00
2018-07-03T10:50:51.448Z,0.90
2018-07-03T10:51:51.431Z,1.00
2018-07-03T10:52:51.421Z,1.30
2018-07-03T10:53:51.413Z,1.10
2018-07-03T10:54:51.407Z,1.00
2018-07-03T10:55:51.393Z,1.00
2018-07-03T10:56:51.394Z,1.10
2018-07-03T10:57:51.379Z,1.00
2018-07-03T10:58:51.366Z,1.00
2018-07-03T10:59:51.364Z,1.00
2018-07-03T11:00:51.350Z,1.10
2018-07-03T11:01:51.352Z,1.00
2018-07-03T11:02:51.328Z,1.00
2018-07-03T11:03:51.323Z,1.30
2018-07-03T11:04:51.309Z,1.40
2018-07-03T11:05:51.369Z,1.10
2018-07-03T11:06:51.292Z,1.30
2018-07-03T11:07:51.288Z,0.90
2018-07-03T11:08:51.322Z,1.00
2018-07-03T11:09:51.269Z,1.00
2018-07-03T11:10:51.269Z,1.30
2018-07-03T11:11:51.246Z,1.00
2018-07-03T11:12:51.243Z,1.00
2018-07-03T11:13:51.309Z,1.10
2018-07-03T11:14:51.219Z,1.10
2018-07-03T11:15:51.207Z,1.10
2018-07-03T11:16:51.197Z,1.10
2018-07-03T11:17:51.188Z,1.30
2018-07-03T11:18:51.180Z,1.10
2018-07-03T11:19:51.257Z,1.30
2018-07-03T11:20:51.165Z,1.00
2018-07-03T11:21:51.161Z,1.10
2018-07-03T11:22:51.141Z,1.00
2018-07-03T11:23:51.147Z,1.20
2018-07-03T11:24:51.178Z,1.00
2018-07-03T11:25:51.118Z,1.20
2018-07-03T11:26:51.110Z,1.10
2018-07-03T11:27:51.101Z,1.10
2018-07-03T11:28:51.088Z,1.20
2018-07-03T11:29:51.081Z,1.20
2018-07-03T11:30:51.082Z,1.20
2018-07-03T11:31:51.062Z,1.50
2018-07-03T11:32:51.056Z,1.00
2018-07-03T11:33:51.047Z,1.00
2018-07-03T11:34:51.036Z,1.00
2018-07-03T11:35:51.027Z,1.00
2018-07-03T11:36:51.016Z,1.10
2018-07-03T11:37:51.012Z,1.40
2018-07-03T11:38:51.001Z,1.10
2018-07-03T11:39:50.989Z,1.10
2018-07-03T11:40:50.988Z,1.20
2018-07-03T11:41:50.977Z,1.10
2018-07-03T11:42:50.967Z,1.10
2018-07-03T11:43:50.952Z,1.00
2018-07-03T11:44:51.059Z,1.00
2018-07-03T11:45:50.937Z,1.10
2018-07-03T11:46:50.936Z,1.20
2018-07-03T11:47:50.929Z,1.00
2018-07-03T11:48:50.910Z,1.40
2018-07-03T11:49:50.909Z,1.10
2018-07-03T11:50:50.901Z,0.90
2018-07-03T11:51:50.891Z,1.40
2018-07-03T11:52:50.879Z,1.00
2018-07-03T11:53:50.864Z,1.10
2018-07-03T11:54:50.856Z,1.10
2018-07-03T11:55:50.847Z,1.20
2018-07-03T11:56:50.840Z,0.90
2018-07-03T11:57:50.826Z,1.20
2018-07-03T11:58:50.925Z,0.90
2018-07-03T11:59:50.810Z,1.00
2018-07-03T12:00:50.804Z,1.10
2018-07-03T12:01:50.808Z,1.00
2018-07-03T12:02:50.786Z,0.90
2018-07-03T12:03:50.776Z,1.00
2018-07-03T12:04:50.783Z,1.20
2018-07-03T12:05:50.758Z,0.90
2018-07-03T12:06:50.758Z,1.30
2018-07-03T12:07:50.740Z,1.00
2018-07-03T12:08:50.732Z,1.10
2018-07-03T12:09:50.724Z,1.00
2018-07-03T12:10:50.717Z,0.90
2018-07-03T12:11:50.709Z,1.10
2018-07-03T12:12:50.700Z,0.90
2018-07-03T12:13:50.688Z,1.20
2018-07-03T12:14:50.745Z,1.30
2018-07-03T12:15:50.669Z,1.10
2018-07-03T12:16:50.661Z,0.90
2018-07-03T12:17:50.660Z,1.00
2018-07-03T12:18:50.644Z,1.10
2018-07-03T12:19:50.689Z,1.10
2018-07-03T12:20:50.629Z,1.00
2018-07-03T12:21:50.620Z,1.10
2018-07-03T12:22:50.609Z,0.90
2018-07-03T12:23:50.609Z,1.00
2018-07-03T12:24:50.590Z,0.90
2018-07-03T12:25:50.587Z,1.00
2018-07-03T12:26:50.580Z,1.30
2018-07-03T12:27:50.576Z,1.00
2018-07-03T12:28:50.588Z,1.10
2018-07-03T12:29:50.550Z,0.90
2018-07-03T12:30:50.640Z,1.30
2018-07-03T12:31:50.539Z,1.10
2018-07-03T12:32:50.528Z,1.00
2018-07-03T12:33:50.516Z,1.20
2018-07-03T12:34:50.516Z,1.00
2018-07-03T12:35:50.498Z,1.20
2018-07-03T12:36:50.490Z,1.70
2018-07-03T12:37:50.482Z,1.00
2018-07-03T12:38:50.476Z,0.90
2018-07-03T12:39:50.464Z,1.10
2018-07-03T12:40:50.461Z,1.30
2018-07-03T12:41:50.448Z,1.20
2018-07-03T12:42:50.438Z,0.90
2018-07-03T12:43:50.429Z,1.10
2018-07-03T12:44:50.419Z,1.00
2018-07-03T12:45:50.417Z,1.10
2018-07-03T12:46:50.405Z,1.50
2018-07-03T12:47:50.394Z,1.20
2018-07-03T12:48:50.396Z,1.10
2018-07-03T12:49:50.483Z,1.10
2018-07-03T12:50:50.380Z,1.30
2018-07-03T12:51:50.412Z,1.30
2018-07-03T12:52:50.354Z,1.40
2018-07-03T12:53:50.354Z,1.20
2018-07-03T12:54:50.333Z,1.40
2018-07-03T12:55:50.329Z,1.20
2018-07-03T12:56:50.318Z,1.00
2018-07-03T12:57:50.307Z,1.20
2018-07-03T12:58:50.300Z,1.20
2018-07-03T12:59:50.300Z,1.10
2018-07-03T13:00:50.289Z,1.00
2018-07-03T13:01:50.360Z,1.10
2018-07-03T13:02:50.276Z,1.20
2018-07-03T13:03:50.258Z,1.10
2018-07-03T13:04:50.245Z,1.20
2018-07-03T13:05:50.262Z,1.40
2018-07-03T13:06:50.239Z,1.20
2018-07-03T13:07:50.222Z,1.40
2018-07-03T13:08:50.218Z,1.10
2018-07-03T13:09:50.208Z,1.30
2018-07-03T13:10:50.258Z,1.20
2018-07-03T13:11:50.187Z,1.20
2018-07-03T13:12:50.181Z,1.60
2018-07-03T13:13:50.169Z,1.10
2018-07-03T13:14:50.168Z,1.20
2018-07-03T13:15:50.195Z,1.20
2018-07-03T13:16:50.143Z,1.10
2018-07-03T13:17:50.156Z,1.30